Time;durP1;ratioP1;P1;durP2;ratioP2;P2;SDS_P1;SDS_P2;PMS_P1;PMS_P2;Temp;Humidity;BMP_temperature;BMP_pressure;BME280_temperature;BME280_humidity;BME280_pressure;Samples;Min_cycle;Max_cycle;Signal;HPM_P1;HPM_P2
2021/09/24 00:01:46;;;;;;;1.45;0.50;;;11.60;99.90;;;;;;4965593;28;20075;-79
2021/09/24 00:04:14;;;;;;;2.95;0.40;;;11.60;99.90;;;;;;4947346;28;20050;-80
2021/09/24 00:06:42;;;;;;;1.40;0.85;;;11.70;99.90;;;;;;4964856;28;20057;-80
2021/09/24 00:09:10;;;;;;;1.60;1.05;;;11.80;99.90;;;;;;4935889;28;20131;-80
2021/09/24 00:11:40;;;;;;;3.55;0.95;;;11.80;99.90;;;;;;4952536;28;20039;-80
2021/09/24 00:14:08;;;;;;;10.88;1.38;;;11.80;99.90;;;;;;4972875;28;20047;-82
2021/09/24 00:16:35;;;;;;;4.70;0.82;;;11.90;99.90;;;;;;4951776;28;20106;-80
2021/09/24 00:19:03;;;;;;;3.03;0.90;;;11.80;99.90;;;;;;4933338;28;20114;-82
2021/09/24 00:21:30;;;;;;;0.98;0.43;;;11.80;99.90;;;;;;4952385;28;20078;-82
2021/09/24 00:23:58;;;;;;;1.80;0.80;;;11.80;99.90;;;;;;4964212;28;20582;-80
2021/09/24 00:26:25;;;;;;;4.32;1.65;;;11.90;99.90;;;;;;4952026;28;20055;-81
2021/09/24 00:28:52;;;;;;;2.83;1.02;;;11.90;99.90;;;;;;4969822;28;20047;-82
2021/09/24 00:31:19;;;;;;;2.25;0.47;;;11.90;99.90;;;;;;4935702;29;20058;-80
2021/09/24 00:33:46;;;;;;;3.22;0.68;;;11.90;99.90;;;;;;4965863;28;20159;-80
2021/09/24 00:36:13;;;;;;;1.33;0.60;;;11.90;99.90;;;;;;4966432;28;20054;-79
2021/09/24 00:38:40;;;;;;;3.53;0.90;;;11.90;99.90;;;;;;4965872;28;20046;-79
2021/09/24 00:41:08;;;;;;;4.07;0.90;;;12.00;99.90;;;;;;4952651;28;20409;-79
2021/09/24 00:43:36;;;;;;;3.00;0.68;;;12.00;99.90;;;;;;4963615;28;20055;-80
2021/09/24 00:46:03;;;;;;;5.55;0.98;;;12.00;99.90;;;;;;4950600;28;20059;-81
2021/09/24 00:48:31;;;;;;;2.42;0.95;;;11.90;99.90;;;;;;4950416;28;20043;-79
2021/09/24 00:50:58;;;;;;;4.45;0.57;;;11.90;99.90;;;;;;4948953;28;20071;-81
2021/09/24 00:53:25;;;;;;;4.22;1.67;;;11.90;99.90;;;;;;4965453;28;20051;-79
2021/09/24 00:55:52;;;;;;;3.08;0.40;;;11.90;99.90;;;;;;4964758;28;20047;-80
2021/09/24 00:58:19;;;;;;;2.60;0.50;;;11.90;99.90;;;;;;4955242;28;20039;-80
2021/09/24 01:00:46;;;;;;;4.07;1.45;;;11.90;99.90;;;;;;4950628;28;20040;-83
2021/09/24 01:03:14;;;;;;;3.53;0.43;;;11.90;99.90;;;;;;4960930;28;20051;-83
2021/09/24 01:05:41;;;;;;;5.25;1.15;;;11.90;99.90;;;;;;4964329;28;20057;-80
2021/09/24 01:08:09;;;;;;;1.90;0.90;;;11.90;99.90;;;;;;4951622;28;20603;-81
2021/09/24 01:10:36;;;;;;;6.88;1.23;;;11.90;99.90;;;;;;4950655;28;20206;-80
2021/09/24 01:13:03;;;;;;;2.28;0.77;;;11.80;99.90;;;;;;4922944;28;20063;-81
2021/09/24 01:15:30;;;;;;;7.60;0.88;;;11.80;99.90;;;;;;4914668;29;20051;-81
2021/09/24 01:17:57;;;;;;;4.00;0.82;;;11.80;99.90;;;;;;4927690;28;20638;-80
2021/09/24 01:20:24;;;;;;;3.53;0.70;;;11.80;99.90;;;;;;4941875;28;20367;-81
2021/09/24 01:22:52;;;;;;;3.28;0.63;;;11.80;99.90;;;;;;4916957;28;20051;-80
2021/09/24 01:25:21;;;;;;;1.13;0.55;;;11.80;99.90;;;;;;4940281;28;20164;-79
2021/09/24 01:27:50;;;;;;;3.50;1.48;;;11.70;99.90;;;;;;4924550;28;20079;-81
2021/09/24 01:30:18;;;;;;;3.47;0.90;;;11.80;99.90;;;;;;4942081;28;20043;-80
2021/09/24 01:32:46;;;;;;;4.55;0.68;;;11.80;99.90;;;;;;4942291;28;20062;-80
2021/09/24 01:35:14;;;;;;;1.55;0.70;;;11.70;99.90;;;;;;4939663;28;20532;-80
2021/09/24 01:37:42;;;;;;;6.22;0.88;;;11.70;99.90;;;;;;4925756;28;20051;-79
2021/09/24 01:40:15;;;;;;;3.33;0.98;;;11.70;99.90;;;;;;4920014;28;20051;-80
2021/09/24 01:42:43;;;;;;;3.95;1.20;;;11.70;99.90;;;;;;4952332;28;20066;-81
2021/09/24 01:45:11;;;;;;;1.60;0.95;;;11.70;99.90;;;;;;4949376;28;25186;-81
2021/09/24 01:47:38;;;;;;;1.02;0.75;;;11.70;99.90;;;;;;4964400;28;20055;-80
2021/09/24 01:50:07;;;;;;;0.95;0.55;;;11.70;99.90;;;;;;4958650;28;20467;-79
2021/09/24 01:52:34;;;;;;;3.35;0.30;;;11.70;99.90;;;;;;4963816;28;20122;-80
2021/09/24 01:55:01;;;;;;;2.72;0.40;;;11.70;99.90;;;;;;4948092;28;20053;-79
2021/09/24 01:57:28;;;;;;;0.55;0.40;;;11.70;99.90;;;;;;4949812;28;20050;-80
2021/09/24 01:59:55;;;;;;;3.35;0.65;;;11.60;99.90;;;;;;4964067;28;20154;-81
2021/09/24 02:02:23;;;;;;;1.15;0.50;;;11.60;99.90;;;;;;4966972;28;20436;-81
2021/09/24 02:04:51;;;;;;;10.00;1.30;;;11.60;99.90;;;;;;4964509;28;20739;-80
2021/09/24 02:07:18;;;;;;;0.88;0.88;;;11.60;99.90;;;;;;4952805;28;20050;-79
2021/09/24 02:09:45;;;;;;;3.85;1.20;;;11.60;99.90;;;;;;4965902;28;20044;-80
2021/09/24 02:12:12;;;;;;;0.68;0.55;;;11.50;99.90;;;;;;4949652;28;20138;-82
2021/09/24 02:14:39;;;;;;;4.45;0.45;;;11.50;99.90;;;;;;4949792;28;20803;-80
2021/09/24 02:17:06;;;;;;;3.25;1.17;;;11.50;99.90;;;;;;4947939;28;20047;-79
2021/09/24 02:19:34;;;;;;;3.65;0.60;;;11.50;99.90;;;;;;4951080;28;20400;-80
2021/09/24 02:22:02;;;;;;;1.90;0.57;;;11.50;99.90;;;;;;4963151;28;20055;-81
2021/09/24 02:24:29;;;;;;;1.40;0.70;;;11.50;99.90;;;;;;4951447;28;20071;-81
2021/09/24 02:26:56;;;;;;;1.38;0.52;;;11.50;99.90;;;;;;4949232;28;20097;-79
2021/09/24 02:29:23;;;;;;;4.10;1.10;;;11.50;99.90;;;;;;4951814;28;20047;-79
2021/09/24 02:31:51;;;;;;;2.28;0.98;;;11.50;99.90;;;;;;4952957;28;20039;-80
2021/09/24 02:34:18;;;;;;;1.88;0.65;;;11.50;99.90;;;;;;4955009;28;20113;-79
2021/09/24 02:36:45;;;;;;;2.55;0.68;;;11.40;99.90;;;;;;4939720;29;20455;-80
2021/09/24 02:39:12;;;;;;;1.30;0.52;;;11.40;99.90;;;;;;4957704;28;20042;-83
2021/09/24 02:41:39;;;;;;;7.32;0.85;;;11.40;99.90;;;;;;4951974;28;20134;-82
2021/09/24 02:44:06;;;;;;;2.80;0.60;;;11.40;99.90;;;;;;4978847;28;20047;-84
2021/09/24 02:46:34;;;;;;;2.53;0.68;;;11.40;99.90;;;;;;4954145;28;20136;-84
2021/09/24 02:49:01;;;;;;;3.83;0.68;;;11.40;99.90;;;;;;4949450;28;20453;-81
2021/09/24 02:51:28;;;;;;;1.30;0.30;;;11.40;99.90;;;;;;4952912;28;20047;-81
2021/09/24 02:53:55;;;;;;;2.60;0.50;;;11.40;99.90;;;;;;4955025;28;20053;-81
2021/09/24 02:56:22;;;;;;;3.15;0.80;;;11.40;99.90;;;;;;4970207;28;20555;-81
2021/09/24 02:58:49;;;;;;;2.10;0.47;;;11.40;99.90;;;;;;4954527;28;20760;-80
2021/09/24 03:01:16;;;;;;;2.30;0.43;;;11.30;99.90;;;;;;4936977;29;20497;-80
2021/09/24 03:03:43;;;;;;;1.58;0.30;;;11.30;99.90;;;;;;4969530;28;20043;-79
2021/09/24 03:06:11;;;;;;;3.45;0.90;;;11.30;99.90;;;;;;4955681;28;20051;-82
2021/09/24 03:08:38;;;;;;;4.43;0.63;;;11.30;99.90;;;;;;4968104;28;20409;-80
2021/09/24 03:11:06;;;;;;;22.23;1.48;;;11.40;99.90;;;;;;4951068;28;20081;-80
2021/09/24 03:13:33;;;;;;;5.85;1.00;;;11.30;99.90;;;;;;4971859;28;20043;-80
2021/09/24 03:16:01;;;;;;;1.92;0.85;;;11.40;99.90;;;;;;4956585;28;20049;-81
2021/09/24 03:18:28;;;;;;;5.63;1.15;;;11.40;99.90;;;;;;4969605;28;20039;-81
2021/09/24 03:20:55;;;;;;;5.22;2.28;;;11.40;99.90;;;;;;4952785;28;20047;-79
2021/09/24 03:23:22;;;;;;;14.65;1.50;;;11.30;99.90;;;;;;4967285;28;20127;-80
2021/09/24 03:25:50;;;;;;;1.63;0.50;;;11.30;99.90;;;;;;4952796;28;20551;-81
2021/09/24 03:28:17;;;;;;;1.63;0.43;;;11.20;99.90;;;;;;4968976;28;20055;-82
2021/09/24 03:30:44;;;;;;;2.00;0.70;;;11.20;99.90;;;;;;4958431;28;20035;-83
2021/09/24 03:33:12;;;;;;;3.58;0.32;;;11.10;99.90;;;;;;4969186;28;20039;-80
2021/09/24 03:35:39;;;;;;;1.80;0.65;;;11.10;99.90;;;;;;4966269;28;20048;-81
2021/09/24 03:38:06;;;;;;;3.38;0.55;;;11.10;99.90;;;;;;4967343;28;20058;-81
2021/09/24 03:40:33;;;;;;;5.28;0.77;;;11.10;99.90;;;;;;4969623;28;20051;-81
2021/09/24 03:43:00;;;;;;;3.03;1.30;;;11.00;99.90;;;;;;4950598;28;20047;-82
2021/09/24 03:45:28;;;;;;;3.90;1.00;;;11.10;99.90;;;;;;4958133;28;20046;-82
2021/09/24 03:47:55;;;;;;;4.28;0.68;;;11.10;99.90;;;;;;4952764;28;20439;-81
2021/09/24 03:50:24;;;;;;;5.45;0.43;;;11.10;99.90;;;;;;4961198;28;20065;-81
2021/09/24 03:52:54;;;;;;;2.42;0.93;;;11.10;99.90;;;;;;4948011;28;20123;-81
2021/09/24 03:55:21;;;;;;;2.50;1.00;;;11.00;99.90;;;;;;4950850;28;20043;-81
2021/09/24 03:57:52;;;;;;;1.70;0.63;;;10.90;99.90;;;;;;4953432;28;20058;-83
2021/09/24 04:00:19;;;;;;;6.38;1.10;;;10.90;99.90;;;;;;4958588;28;20118;-84
2021/09/24 04:02:46;;;;;;;1.33;0.38;;;10.80;99.90;;;;;;4935336;29;20557;-81
2021/09/24 04:05:14;;;;;;;1.20;0.82;;;10.80;99.90;;;;;;4950178;29;20127;-81
2021/09/24 04:07:41;;;;;;;3.70;0.60;;;10.80;99.90;;;;;;4969765;28;20457;-82
2021/09/24 04:10:08;;;;;;;2.55;0.55;;;10.70;99.90;;;;;;4952518;28;20054;-82
2021/09/24 04:12:36;;;;;;;8.38;1.60;;;10.70;99.90;;;;;;4952927;28;20050;-81
2021/09/24 04:15:04;;;;;;;3.80;0.43;;;10.70;99.90;;;;;;4964540;28;20083;-81
2021/09/24 04:17:31;;;;;;;1.98;0.32;;;10.70;99.90;;;;;;4954196;28;20242;-82
2021/09/24 04:19:58;;;;;;;3.22;0.68;;;10.70;99.90;;;;;;4967526;28;20078;-82
2021/09/24 04:22:26;;;;;;;2.90;0.50;;;10.80;99.90;;;;;;4950612;28;20047;-81
2021/09/24 04:24:53;;;;;;;3.97;0.45;;;10.70;99.90;;;;;;4949344;28;20051;-82
2021/09/24 04:27:20;;;;;;;1.45;0.38;;;10.70;99.90;;;;;;4961570;28;20623;-82
2021/09/24 04:29:48;;;;;;;5.93;0.63;;;10.70;99.90;;;;;;4964738;28;20044;-80
2021/09/24 04:32:15;;;;;;;4.63;0.70;;;10.70;99.90;;;;;;4951597;28;20057;-81
2021/09/24 04:34:42;;;;;;;4.18;1.02;;;10.70;99.90;;;;;;4952959;28;20043;-81
2021/09/24 04:37:09;;;;;;;2.20;0.65;;;10.70;99.90;;;;;;4951182;28;20035;-81
2021/09/24 04:39:36;;;;;;;6.38;1.55;;;10.70;99.90;;;;;;4952986;28;20043;-81
2021/09/24 04:42:03;;;;;;;8.88;1.95;;;10.80;99.90;;;;;;4948985;28;20521;-81
2021/09/24 04:44:30;;;;;;;8.25;1.45;;;10.80;99.90;;;;;;4959011;28;20545;-82
2021/09/24 04:46:57;;;;;;;5.50;1.17;;;10.80;99.90;;;;;;4966035;28;20043;-82
2021/09/24 04:49:24;;;;;;;4.60;1.13;;;10.80;99.90;;;;;;4968619;28;20043;-81
2021/09/24 04:51:51;;;;;;;4.40;0.90;;;10.80;99.90;;;;;;4967472;28;20055;-81
2021/09/24 04:54:18;;;;;;;5.38;1.95;;;10.80;99.90;;;;;;4953139;28;20044;-81
2021/09/24 04:56:46;;;;;;;1.27;0.47;;;10.80;99.90;;;;;;4951013;28;20050;-81
2021/09/24 04:59:13;;;;;;;2.47;0.75;;;10.70;99.90;;;;;;4952307;28;20051;-80
2021/09/24 05:01:40;;;;;;;1.27;0.82;;;10.70;99.90;;;;;;4967103;28;20050;-80
2021/09/24 05:04:07;;;;;;;1.50;0.55;;;10.80;99.90;;;;;;4952125;28;20113;-80
2021/09/24 05:06:34;;;;;;;9.02;0.80;;;10.70;99.90;;;;;;4951523;28;20040;-81
2021/09/24 05:09:01;;;;;;;3.47;1.33;;;10.70;99.90;;;;;;4952182;28;20043;-82
2021/09/24 05:11:28;;;;;;;2.03;0.50;;;10.80;99.90;;;;;;4952540;28;20047;-81
2021/09/24 05:13:55;;;;;;;2.35;0.50;;;10.70;99.90;;;;;;4966206;28;20106;-82
2021/09/24 05:16:26;;;;;;;6.18;2.13;;;10.70;99.90;;;;;;4952364;28;20051;-80
2021/09/24 05:18:53;;;;;;;6.15;1.02;;;10.80;99.90;;;;;;4965513;28;20630;-80
2021/09/24 05:21:20;;;;;;;5.80;0.82;;;10.80;99.90;;;;;;4969657;28;20051;-81
2021/09/24 05:23:47;;;;;;;2.03;1.33;;;10.80;99.90;;;;;;4964971;28;20086;-81
2021/09/24 05:26:14;;;;;;;7.25;1.35;;;10.80;99.90;;;;;;4958838;28;20055;-81
2021/09/24 05:28:41;;;;;;;1.45;0.50;;;10.80;99.90;;;;;;4956195;28;20050;-81
2021/09/24 05:31:08;;;;;;;2.22;0.90;;;10.80;99.90;;;;;;4955520;28;20067;-80
2021/09/24 05:33:35;;;;;;;4.45;0.88;;;10.70;99.90;;;;;;4966314;28;20055;-81
2021/09/24 05:36:02;;;;;;;5.30;0.63;;;10.70;99.90;;;;;;4966424;28;20531;-80
2021/09/24 05:38:29;;;;;;;3.67;0.63;;;10.60;99.90;;;;;;4952308;28;20291;-82
2021/09/24 05:40:56;;;;;;;7.20;1.42;;;10.60;99.90;;;;;;4968191;28;20046;-80
2021/09/24 05:43:23;;;;;;;4.72;0.82;;;10.70;99.90;;;;;;4965772;28;20043;-81
2021/09/24 05:45:50;;;;;;;6.03;1.08;;;10.80;99.90;;;;;;4956823;28;20054;-83
2021/09/24 05:48:17;;;;;;;5.78;0.98;;;10.70;99.90;;;;;;4956780;28;20058;-82
2021/09/24 05:50:44;;;;;;;3.42;0.52;;;10.70;99.90;;;;;;4954863;28;20054;-80
2021/09/24 05:53:11;;;;;;;3.85;0.70;;;10.70;99.90;;;;;;4952035;28;20058;-81
2021/09/24 05:55:38;;;;;;;3.53;1.30;;;10.80;99.90;;;;;;4967463;28;20105;-80
2021/09/24 05:58:05;;;;;;;3.17;0.98;;;10.80;99.90;;;;;;4953282;29;20102;-80
2021/09/24 06:00:33;;;;;;;4.32;0.68;;;10.80;99.90;;;;;;4952960;28;21048;-81
2021/09/24 06:03:00;;;;;;;17.80;1.33;;;10.80;99.90;;;;;;4969508;28;20058;-81
2021/09/24 06:05:28;;;;;;;3.53;0.95;;;10.80;99.90;;;;;;4972549;28;20420;-81
2021/09/24 06:07:55;;;;;;;1.27;0.68;;;10.80;99.90;;;;;;4972088;28;20055;-82
2021/09/24 06:10:23;;;;;;;3.67;0.50;;;10.70;99.90;;;;;;4972330;28;20062;-82
2021/09/24 06:12:50;;;;;;;1.80;0.75;;;10.80;99.90;;;;;;4957917;28;20039;-81
2021/09/24 06:15:20;;;;;;;1.10;0.50;;;10.80;99.90;;;;;;4957360;28;20048;-82
2021/09/24 06:17:48;;;;;;;3.00;0.70;;;10.70;99.90;;;;;;4955519;28;20065;-82
2021/09/24 06:20:16;;;;;;;2.72;0.43;;;10.70;99.90;;;;;;4957307;28;20416;-83
2021/09/24 06:22:46;;;;;;;2.40;0.32;;;10.70;99.90;;;;;;4972852;28;20504;-81
2021/09/24 06:25:15;;;;;;;5.03;1.05;;;10.80;99.90;;;;;;4970464;28;20118;-82
2021/09/24 06:27:42;;;;;;;3.22;0.95;;;10.80;99.90;;;;;;4971262;28;20118;-82
2021/09/24 06:30:12;;;;;;;5.13;1.50;;;10.80;99.90;;;;;;4958394;28;20053;-83
2021/09/24 06:32:40;;;;;;;1.65;0.77;;;10.80;99.90;;;;;;4973239;28;20047;-81
2021/09/24 06:35:07;;;;;;;1.65;0.40;;;10.80;99.90;;;;;;4954687;28;20433;-82
2021/09/24 06:37:34;;;;;;;1.13;0.57;;;10.80;99.90;;;;;;4972475;28;20070;-80
2021/09/24 06:40:02;;;;;;;2.03;0.32;;;10.80;99.90;;;;;;4960583;28;20043;-80
2021/09/24 06:42:29;;;;;;;10.45;0.95;;;10.80;99.90;;;;;;4957350;28;20043;-80
2021/09/24 06:44:59;;;;;;;2.35;0.50;;;10.80;99.90;;;;;;4953128;28;20626;-84
2021/09/24 06:47:27;;;;;;;8.93;1.67;;;10.80;99.90;;;;;;4956439;28;20058;-80
2021/09/24 06:49:54;;;;;;;2.72;0.60;;;10.80;99.90;;;;;;4970775;28;20613;-82
2021/09/24 06:52:22;;;;;;;2.53;0.52;;;10.80;99.90;;;;;;4970418;28;20128;-81
2021/09/24 06:54:50;;;;;;;6.07;1.45;;;10.80;99.90;;;;;;4958869;28;20043;-81
2021/09/24 06:57:17;;;;;;;2.58;0.52;;;10.80;99.90;;;;;;4966592;28;20055;-80
2021/09/24 06:59:45;;;;;;;3.47;1.17;;;10.90;99.90;;;;;;4956802;28;20051;-80
2021/09/24 07:02:12;;;;;;;6.88;0.75;;;10.80;99.90;;;;;;4953952;28;20051;-81
2021/09/24 07:04:40;;;;;;;3.33;1.15;;;10.90;99.90;;;;;;4953049;28;20404;-79
2021/09/24 07:07:07;;;;;;;0.63;0.50;;;10.90;99.90;;;;;;4950252;28;20145;-79
2021/09/24 07:09:33;;;;;;;1.33;0.47;;;10.90;99.90;;;;;;4969847;28;20535;-80
2021/09/24 07:12:02;;;;;;;3.85;0.88;;;10.90;99.90;;;;;;4949220;28;20046;-80
2021/09/24 07:14:31;;;;;;;2.47;0.70;;;10.90;99.90;;;;;;4938382;29;20316;-80
2021/09/24 07:16:59;;;;;;;5.18;1.10;;;10.90;99.90;;;;;;4953290;28;20056;-80
2021/09/24 07:19:27;;;;;;;0.65;0.50;;;10.90;99.90;;;;;;4960779;28;20046;-81
2021/09/24 07:21:54;;;;;;;7.10;1.55;;;10.90;99.90;;;;;;4939523;29;20055;-81
2021/09/24 07:24:21;;;;;;;2.90;1.00;;;10.90;99.90;;;;;;4937817;28;20055;-81
2021/09/24 07:26:49;;;;;;;5.88;1.92;;;10.90;99.90;;;;;;4955552;28;20047;-80
2021/09/24 07:29:16;;;;;;;1.52;0.52;;;10.80;99.90;;;;;;4968857;28;20075;-80
2021/09/24 07:31:43;;;;;;;2.70;0.40;;;10.80;99.90;;;;;;4954421;28;20078;-79
2021/09/24 07:34:11;;;;;;;8.02;1.05;;;10.80;99.90;;;;;;4971562;28;20055;-80
2021/09/24 07:36:37;;;;;;;4.53;0.60;;;10.80;99.90;;;;;;4956432;28;20126;-81
2021/09/24 07:39:06;;;;;;;3.72;0.80;;;10.80;99.90;;;;;;4974060;28;20456;-80
2021/09/24 07:41:33;;;;;;;2.05;0.70;;;10.80;99.90;;;;;;4957455;28;20070;-81
2021/09/24 07:44:03;;;;;;;2.67;0.60;;;10.90;99.90;;;;;;4956176;28;20110;-81
2021/09/24 07:46:31;;;;;;;3.15;0.90;;;10.80;99.90;;;;;;4955507;28;20098;-82
2021/09/24 07:48:59;;;;;;;7.18;2.35;;;10.90;99.90;;;;;;4956066;28;20039;-81
2021/09/24 07:51:27;;;;;;;5.22;0.93;;;10.90;99.90;;;;;;4970389;28;20047;-80
2021/09/24 07:53:54;;;;;;;3.25;0.45;;;10.90;99.90;;;;;;4953349;28;20094;-80
2021/09/24 07:56:21;;;;;;;5.85;1.15;;;10.90;99.90;;;;;;4937921;28;20043;-81
2021/09/24 07:58:48;;;;;;;7.05;1.15;;;10.90;99.90;;;;;;4973178;28;20336;-80
2021/09/24 08:01:15;;;;;;;1.17;0.57;;;10.90;99.90;;;;;;4949747;28;20055;-80
2021/09/24 08:03:43;;;;;;;3.80;0.73;;;10.80;99.90;;;;;;4968242;28;20496;-80
2021/09/24 08:06:10;;;;;;;3.08;0.70;;;10.80;99.90;;;;;;4963579;28;20059;-80
2021/09/24 08:08:37;;;;;;;2.05;0.73;;;10.90;99.90;;;;;;4967085;28;20461;-80
2021/09/24 08:11:04;;;;;;;2.63;0.57;;;11.00;99.90;;;;;;4948977;28;20043;-81
2021/09/24 08:13:31;;;;;;;4.38;0.98;;;10.90;99.90;;;;;;4968280;28;20051;-82
2021/09/24 08:15:58;;;;;;;6.50;0.93;;;11.00;99.90;;;;;;4969239;28;20059;-82
2021/09/24 08:18:25;;;;;;;3.25;1.90;;;11.00;99.90;;;;;;4971023;28;20047;-81
2021/09/24 08:20:54;;;;;;;6.63;0.95;;;10.90;99.90;;;;;;4950998;28;20050;-82
2021/09/24 08:23:21;;;;;;;1.38;0.68;;;10.90;99.90;;;;;;4953000;28;20059;-81
2021/09/24 08:25:49;;;;;;;3.38;0.60;;;11.00;99.90;;;;;;4950855;28;20059;-80
2021/09/24 08:28:16;;;;;;;5.82;0.93;;;11.00;99.90;;;;;;4969459;28;20040;-81
2021/09/24 08:30:44;;;;;;;1.60;1.05;;;11.00;99.90;;;;;;4952505;28;20110;-81
2021/09/24 08:33:14;;;;;;;2.13;0.50;;;11.10;99.90;;;;;;4952396;28;20062;-80
2021/09/24 08:35:43;;;;;;;3.08;1.13;;;11.00;99.90;;;;;;4953676;28;20047;-80
2021/09/24 08:38:10;;;;;;;3.50;0.68;;;11.10;99.90;;;;;;4971113;28;20098;-82
2021/09/24 08:40:38;;;;;;;3.92;0.60;;;11.10;99.90;;;;;;4967805;28;20671;-82
2021/09/24 08:43:05;;;;;;;2.05;0.60;;;11.10;99.90;;;;;;4951948;28;20040;-82
2021/09/24 08:45:33;;;;;;;8.73;1.63;;;11.20;99.90;;;;;;4962541;28;20052;-81
2021/09/24 08:48:03;;;;;;;2.75;0.32;;;11.20;99.90;;;;;;4959978;28;20049;-83
2021/09/24 08:50:38;;;;;;;0.90;0.38;;;11.20;99.90;;;;;;4954296;28;20138;-81
2021/09/24 08:53:08;;;;;;;2.70;0.35;;;11.20;99.90;;;;;;4934741;28;20106;-83
2021/09/24 08:55:36;;;;;;;1.83;0.52;;;11.20;99.90;;;;;;4936224;28;20337;-82
2021/09/24 08:58:04;;;;;;;2.05;1.15;;;11.20;99.90;;;;;;4941552;28;20039;-82
2021/09/24 09:00:33;;;;;;;3.33;0.60;;;11.20;99.90;;;;;;4959692;28;20075;-82
2021/09/24 09:03:14;;;;;;;2.35;0.85;;;11.30;99.90;;;;;;4934256;28;20694;-84
2021/09/24 09:05:45;;;;;;;2.50;0.50;;;11.30;99.90;;;;;;4948314;28;20548;-81
2021/09/24 09:08:23;;;;;;;2.20;0.77;;;11.30;99.90;;;;;;4953797;28;20479;-83
2021/09/24 09:11:01;;;;;;;2.78;0.93;;;11.30;99.90;;;;;;4931145;28;20547;-83
2021/09/24 09:13:39;;;;;;;0.80;0.63;;;11.20;99.90;;;;;;4947108;28;20062;-83
2021/09/24 09:16:22;;;;;;;3.95;0.88;;;11.20;99.90;;;;;;4953770;28;20051;-82
2021/09/24 09:19:03;;;;;;;2.65;0.73;;;11.30;99.90;;;;;;4942566;28;20086;-83
2021/09/24 09:21:30;;;;;;;1.95;0.55;;;11.20;99.90;;;;;;4948931;28;20050;-83
2021/09/24 09:23:58;;;;;;;2.25;0.30;;;11.20;99.90;;;;;;4939317;29;20054;-83
2021/09/24 09:26:26;;;;;;;3.22;0.60;;;11.30;99.90;;;;;;4946757;28;20117;-81
2021/09/24 09:28:59;;;;;;;2.45;1.15;;;11.40;99.90;;;;;;4927164;28;20051;-83
2021/09/24 09:32:01;;;;;;;3.42;0.73;;;11.40;99.90;;;;;;4931561;29;20098;-82
2021/09/24 09:34:35;;;;;;;5.38;0.80;;;11.40;99.90;;;;;;4956028;28;20115;-82
2021/09/24 09:37:19;;;;;;;0.75;0.47;;;11.40;99.90;;;;;;4934922;28;20050;-82
2021/09/24 09:40:11;;;;;;;2.05;0.60;;;11.40;99.90;;;;;;4947630;28;20055;-81
2021/09/24 09:42:41;;;;;;;8.23;1.65;;;11.40;99.90;;;;;;4936795;28;20080;-81
2021/09/24 09:45:11;;;;;;;0.55;0.30;;;11.30;99.90;;;;;;4947880;28;20075;-84
2021/09/24 09:47:40;;;;;;;;;;;11.30;99.90;;;;;;4933027;28;20552;-83
2021/09/24 09:50:25;;;;;;;6.18;1.73;;;11.40;99.90;;;;;;4936688;28;19977;-82
2021/09/24 09:52:55;;;;;;;2.85;0.47;;;11.50;99.90;;;;;;4948948;28;20468;-82
2021/09/24 09:55:23;;;;;;;1.73;0.85;;;11.50;99.90;;;;;;4914577;29;20063;-82
2021/09/24 09:57:59;;;;;;;1.50;0.32;;;11.50;99.90;;;;;;4926090;28;20040;-83
2021/09/24 10:00:32;;;;;;;2.92;0.50;;;11.50;99.90;;;;;;4948203;28;20058;-83
2021/09/24 10:03:08;;;;;;;1.98;0.50;;;11.50;99.90;;;;;;4931045;28;20063;-83
2021/09/24 10:05:44;;;;;;;3.35;0.60;;;11.50;99.90;;;;;;4936006;28;20106;-83
2021/09/24 10:08:26;;;;;;;2.85;0.50;;;11.50;99.90;;;;;;4943163;28;20062;-82
2021/09/24 10:10:58;;;;;;;2.60;0.90;;;11.60;99.90;;;;;;4938504;28;20055;-84
2021/09/24 10:13:28;;;;;;;2.67;1.00;;;11.50;99.90;;;;;;4949899;28;20043;-83
2021/09/24 10:15:55;;;;;;;2.75;0.40;;;11.50;99.90;;;;;;4924644;28;20591;-82
2021/09/24 10:18:23;;;;;;;4.95;0.77;;;11.40;99.90;;;;;;4940340;28;20044;-83
2021/09/24 10:20:52;;;;;;;1.55;0.60;;;11.50;99.90;;;;;;4928316;28;20130;-81
2021/09/24 10:23:20;;;;;;;2.05;0.60;;;11.60;99.90;;;;;;4937516;28;20499;-83
2021/09/24 10:25:55;;;;;;;4.15;0.65;;;11.60;99.90;;;;;;4949565;28;20106;-82
2021/09/24 10:28:28;;;;;;;1.92;0.70;;;11.60;99.90;;;;;;4951358;28;20058;-83
2021/09/24 10:30:57;;;;;;;1.13;0.60;;;11.60;99.90;;;;;;4932447;28;20047;-83
2021/09/24 10:33:44;;;;;;;1.15;0.70;;;11.60;99.90;;;;;;4942197;28;20049;-81
2021/09/24 10:36:32;;;;;;;3.78;0.60;;;11.60;99.90;;;;;;4943943;28;20049;-81
2021/09/24 10:39:00;;;;;;;0.80;0.50;;;11.70;99.90;;;;;;4946561;28;20058;-82
2021/09/24 10:41:28;;;;;;;3.25;0.52;;;11.80;99.90;;;;;;4965460;28;20484;-82
2021/09/24 10:43:56;;;;;;;0.80;0.30;;;11.80;99.90;;;;;;4937022;28;20733;-83
2021/09/24 10:46:24;;;;;;;2.63;0.43;;;11.80;99.90;;;;;;4973206;28;20106;-82
2021/09/24 10:49:13;;;;;;;0.85;0.40;;;11.70;99.90;;;;;;4959636;28;20051;-83
2021/09/24 10:52:08;;;;;;;2.35;0.43;;;11.70;99.90;;;;;;4955022;28;20047;-83
2021/09/24 10:54:59;;;;;;;2.35;0.50;;;11.70;99.90;;;;;;4964140;28;20099;-84
2021/09/24 10:57:50;;;;;;;2.45;0.43;;;11.70;99.90;;;;;;4950415;28;20044;-83
2021/09/24 11:00:47;;;;;;;1.05;0.73;;;11.70;99.90;;;;;;4952361;28;20115;-84
2021/09/24 11:03:19;;;;;;;1.73;0.60;;;11.70;99.90;;;;;;4944704;28;20053;-84
2021/09/24 11:06:03;;;;;;;2.65;0.40;;;11.80;99.90;;;;;;4957169;28;20051;-84
2021/09/24 11:08:36;;;;;;;3.05;0.30;;;11.80;99.90;;;;;;4950376;28;20051;-83
2021/09/24 11:11:14;;;;;;;4.40;0.45;;;11.80;99.90;;;;;;4951749;28;21452;-83
2021/09/24 11:13:47;;;;;;;2.42;0.28;;;11.80;99.90;;;;;;4939870;28;20128;-84
2021/09/24 11:16:16;;;;;;;3.63;0.40;;;11.70;99.90;;;;;;4944383;28;20408;-84
2021/09/24 11:18:49;;;;;;;6.57;1.08;;;11.60;99.90;;;;;;4949335;28;20055;-83
2021/09/24 11:21:22;;;;;;;3.25;0.88;;;11.60;99.90;;;;;;4952270;28;20158;-84
2021/09/24 11:23:52;;;;;;;3.78;0.47;;;11.60;99.90;;;;;;4944833;28;20133;-83
2021/09/24 11:26:25;;;;;;;2.67;0.60;;;11.70;99.90;;;;;;4956596;28;20126;-82
2021/09/24 11:29:08;;;;;;;2.70;0.35;;;11.70;99.90;;;;;;4935984;28;20050;-81
2021/09/24 11:31:53;;;;;;;2.35;0.40;;;11.60;99.90;;;;;;4950365;28;20150;-80
2021/09/24 11:34:39;;;;;;;4.88;0.60;;;11.70;99.90;;;;;;4944869;28;20039;-81
2021/09/24 11:37:17;;;;;;;1.85;0.75;;;11.70;99.90;;;;;;4937323;28;20138;-81
2021/09/24 11:39:47;;;;;;;4.45;0.75;;;11.80;99.90;;;;;;4942088;28;20050;-81
2021/09/24 11:42:17;;;;;;;1.48;0.40;;;11.90;99.90;;;;;;4929664;29;20046;-81
2021/09/24 11:44:46;;;;;;;2.53;0.85;;;11.90;99.90;;;;;;4960390;28;20050;-83
2021/09/24 11:47:20;;;;;;;1.63;0.50;;;11.90;99.90;;;;;;4927026;28;20059;-80
2021/09/24 11:49:59;;;;;;;1.90;0.45;;;11.90;99.90;;;;;;4948375;28;20046;-81
2021/09/24 11:52:54;;;;;;;2.20;0.50;;;11.90;99.90;;;;;;4952484;28;20070;-82
2021/09/24 11:55:30;;;;;;;1.40;0.45;;;11.90;99.90;;;;;;4936198;28;20063;-81
2021/09/24 11:58:10;;;;;;;1.55;0.38;;;12.10;99.90;;;;;;4941961;28;20561;-81
2021/09/24 12:00:46;;;;;;;0.93;0.30;;;12.00;99.90;;;;;;4962131;28;20047;-81
2021/09/24 12:03:23;;;;;;;0.82;0.22;;;12.10;99.90;;;;;;4949767;28;20047;-81
2021/09/24 12:06:04;;;;;;;1.73;0.40;;;12.10;99.90;;;;;;4943190;28;20107;-82
2021/09/24 12:08:45;;;;;;;6.40;1.00;;;12.10;99.90;;;;;;4962814;28;20090;-82
2021/09/24 12:11:18;;;;;;;2.20;0.40;;;12.20;99.90;;;;;;4947942;28;20053;-81
2021/09/24 12:13:45;;;;;;;;;;;12.30;99.90;;;;;;4943003;28;20631;-82
2021/09/24 12:16:33;;;;;;;0.95;0.25;;;12.40;99.90;;;;;;4957595;28;19933;-82
2021/09/24 12:19:02;;;;;;;1.50;0.25;;;12.40;99.90;;;;;;4931066;28;20047;-81
2021/09/24 12:21:30;;;;;;;1.67;1.08;;;12.60;99.90;;;;;;4959405;28;20054;-82
2021/09/24 12:23:59;;;;;;;4.15;0.40;;;12.60;99.90;;;;;;4958395;28;20107;-83
2021/09/24 12:26:35;;;;;;;1.27;0.47;;;12.60;99.90;;;;;;4965877;28;20130;-80
2021/09/24 12:29:09;;;;;;;2.08;0.30;;;12.60;99.90;;;;;;4947958;28;20059;-81
2021/09/24 12:31:42;;;;;;;0.38;0.30;;;12.80;99.90;;;;;;4938710;28;20501;-81
2021/09/24 12:34:15;;;;;;;1.13;0.25;;;12.80;99.90;;;;;;4944633;28;20039;-82
2021/09/24 12:36:54;;;;;;;1.88;0.40;;;12.90;99.90;;;;;;4927734;28;20059;-81
2021/09/24 12:39:25;;;;;;;0.70;0.55;;;13.00;99.90;;;;;;4937411;28;20047;-82
2021/09/24 12:41:53;;;;;;;0.47;0.10;;;12.90;99.90;;;;;;4960255;28;20556;-82
2021/09/24 12:44:21;;;;;;;1.58;0.30;;;12.90;99.90;;;;;;4926782;28;20130;-82
2021/09/24 12:46:52;;;;;;;0.98;0.32;;;13.10;99.90;;;;;;4952774;28;20212;-81
2021/09/24 12:49:21;;;;;;;0.20;0.15;;;13.20;99.90;;;;;;4946180;28;20086;-81
2021/09/24 12:51:53;;;;;;;0.93;0.20;;;13.30;99.90;;;;;;4943778;28;20055;-81
2021/09/24 12:54:28;;;;;;;2.55;0.55;;;13.30;99.90;;;;;;4937248;28;20134;-80
2021/09/24 12:56:55;;;;;;;0.57;0.10;;;13.30;99.90;;;;;;4922346;28;20061;-80
2021/09/24 12:59:23;;;;;;;0.30;0.20;;;13.40;99.90;;;;;;4936530;28;20050;-81
2021/09/24 13:01:51;;;;;;;0.85;0.22;;;13.30;99.90;;;;;;4948797;28;20054;-82